Time;durP1;ratioP1;P1;durP2;ratioP2;P2;SDS_P1;SDS_P2;PMS_P1;PMS_P2;Temp;Humidity;BMP_temperature;BMP_pressure;BME280_temperature;BME280_humidity;BME280_pressure;Samples;Min_cycle;Max_cycle;Signal;HPM_P1;HPM_P2
2022/09/18 00:03:05;;;;;;;9.60;2.10;;;;;;;10.90;63.31;99818.84;10385921;28;20064;-84
2022/09/18 00:08:07;;;;;;;10.63;2.28;;;;;;;10.93;63.31;99821.25;10374036;28;20053;-83
2022/09/18 00:13:09;;;;;;;6.95;1.75;;;;;;;11.04;63.12;99821.47;10377851;28;20072;-84
2022/09/18 00:18:11;;;;;;;9.48;1.77;;;;;;;10.99;63.10;99813.03;10377764;28;20052;-84
2022/09/18 00:23:14;;;;;;;10.45;2.17;;;;;;;10.95;62.88;99818.56;10380675;28;20057;-84
2022/09/18 00:28:15;;;;;;;8.00;1.85;;;;;;;11.02;62.75;99818.09;10381188;28;20058;-83
2022/09/18 00:33:17;;;;;;;6.20;1.75;;;;;;;11.01;62.51;99815.56;10379614;28;20501;-84
2022/09/18 00:38:19;;;;;;;5.18;1.70;;;;;;;11.01;62.66;99805.91;10392497;28;20056;-84
2022/09/18 00:43:26;;;;;;;6.50;1.80;;;;;;;10.91;63.00;99807.44;10379018;28;20046;-83
2022/09/18 00:48:43;;;;;;;7.55;1.88;;;;;;;10.95;62.65;99805.50;10376676;28;20060;-83
2022/09/18 00:54:18;;;;;;;6.57;1.90;;;;;;;10.97;62.60;99812.28;10378334;28;20068;-84
2022/09/18 00:59:30;;;;;;;6.90;1.80;;;;;;;10.98;63.22;99800.06;10376899;28;20049;-84
2022/09/18 01:04:32;;;;;;;9.93;2.20;;;;;;;11.04;63.12;99811.00;10375925;28;20068;-84
2022/09/18 01:10:03;;;;;;;6.97;1.70;;;;;;;11.07;63.03;99804.75;10374348;28;20680;-83
2022/09/18 01:15:21;;;;;;;8.52;1.73;;;;;;;10.95;63.14;99810.72;10375386;28;20045;-84
2022/09/18 01:20:33;;;;;;;7.32;2.10;;;;;;;10.95;63.24;99805.50;10373073;28;20148;-84
2022/09/18 01:25:56;;;;;;;6.88;1.80;;;;;;;10.92;63.40;99801.28;10374822;28;20084;-84
2022/09/18 01:31:10;;;;;;;6.20;1.83;;;;;;;10.88;63.26;99806.81;10375143;28;20045;-84
2022/09/18 01:36:16;;;;;;;8.20;1.90;;;;;;;10.93;63.19;99808.19;10373024;28;20168;-84
2022/09/18 01:41:22;;;;;;;6.13;1.60;;;;;;;10.97;63.56;99791.34;10391422;28;20065;-84
2022/09/18 01:46:24;;;;;;;8.07;1.90;;;;;;;10.84;63.49;99792.22;10375858;28;20056;-84
2022/09/18 01:51:34;;;;;;;6.35;1.55;;;;;;;10.85;63.56;99796.50;10372703;28;20130;-84
2022/09/18 01:56:43;;;;;;;5.67;1.63;;;;;;;10.82;63.56;99799.34;10373484;28;20061;-84
2022/09/18 02:01:46;;;;;;;5.13;1.58;;;;;;;10.66;64.21;99793.38;10376644;28;1204367;-84
2022/09/18 02:07:13;;;;;;;6.18;1.48;;;;;;;10.68;63.88;99800.22;10381631;28;20096;-83
2022/09/18 02:12:19;;;;;;;5.50;1.60;;;;;;;10.63;63.92;99802.25;10380537;28;20431;-84
2022/09/18 02:17:31;;;;;;;5.80;1.60;;;;;;;10.64;63.69;99801.34;10380455;28;20041;-84
2022/09/18 02:22:33;;;;;;;4.97;1.55;;;;;;;10.73;63.60;99794.66;10380564;28;20054;-84
2022/09/18 02:27:38;;;;;;;8.32;1.80;;;;;;;10.68;63.52;99797.59;10397166;28;20052;-84
2022/09/18 02:32:40;;;;;;;7.05;1.65;;;;;;;10.65;63.57;99792.53;10378932;28;20049;-84
2022/09/18 02:38:02;;;;;;;4.68;1.58;;;;;;;10.62;63.51;99792.75;10380302;28;20057;-83
2022/09/18 02:43:07;;;;;;;6.88;1.48;;;;;;;10.78;63.32;99790.84;10396831;28;20046;-83
2022/09/18 02:48:38;;;;;;;6.72;1.65;;;;;;;10.63;63.77;99781.34;10395031;28;20053;-85
2022/09/18 02:54:09;;;;;;;8.15;2.17;;;;;;;10.68;63.53;99781.91;10379337;28;20392;-84
2022/09/18 02:59:21;;;;;;;8.77;1.63;;;;;;;10.73;63.79;99779.81;10412272;28;20046;-83
2022/09/18 03:04:26;;;;;;;6.72;1.80;;;;;;;10.76;63.58;99781.41;10375376;28;20061;-84
2022/09/18 03:09:28;;;;;;;5.80;1.70;;;;;;;10.71;63.94;99786.94;10373412;28;20053;-84
2022/09/18 03:14:30;;;;;;;6.00;1.67;;;;;;;10.70;63.96;99784.41;10389858;28;20049;-85
2022/09/18 03:19:32;;;;;;;7.30;1.65;;;;;;;10.75;63.77;99783.19;10374367;28;20050;-86
2022/09/18 03:24:33;;;;;;;5.32;1.50;;;;;;;10.75;64.13;99777.09;10373945;28;20086;-86
2022/09/18 03:29:35;;;;;;;4.85;1.45;;;;;;;10.74;63.87;99780.66;10376375;28;20060;-86
2022/09/18 03:34:38;;;;;;;4.70;1.60;;;;;;;10.74;64.12;99778.06;10376442;28;20045;-86
2022/09/18 03:39:39;;;;;;;6.30;1.42;;;;;;;10.70;63.75;99780.03;10374596;28;20050;-85
2022/09/18 03:44:41;;;;;;;5.68;1.63;;;;;;;10.74;63.68;99783.28;10374207;28;20049;-86
2022/09/18 03:49:43;;;;;;;5.78;1.70;;;;;;;10.74;63.77;99775.44;10375350;28;20521;-85
2022/09/18 03:54:44;;;;;;;7.22;1.60;;;;;;;10.71;63.78;99786.94;10377789;28;20056;-87
2022/09/18 03:59:46;;;;;;;6.00;1.52;;;;;;;10.70;63.77;99784.41;10377406;28;20404;-85
2022/09/18 04:04:48;;;;;;;6.78;1.50;;;;;;;10.51;64.35;99776.88;10374017;28;20068;-87
2022/09/18 04:09:49;;;;;;;7.43;1.77;;;;;;;10.58;63.99;99780.78;10374839;28;20053;-86
2022/09/18 04:14:51;;;;;;;5.00;1.40;;;;;;;10.62;64.09;99777.06;10375144;28;20057;-86
2022/09/18 04:19:53;;;;;;;3.47;1.25;;;;;;;10.60;64.05;99784.16;10380007;28;20061;-85
2022/09/18 04:24:55;;;;;;;5.75;1.70;;;;;;;10.62;63.99;99784.91;10377411;28;20908;-86
2022/09/18 04:29:57;;;;;;;5.38;1.67;;;;;;;10.54;64.21;99775.84;10374273;28;20053;-86
2022/09/18 04:34:58;;;;;;;5.65;1.67;;;;;;;10.58;63.96;99775.56;10375264;28;20093;-86
2022/09/18 04:40:00;;;;;;;7.78;1.50;;;;;;;10.50;64.20;99781.25;10371887;28;20054;-85
2022/09/18 04:45:03;;;;;;;3.72;1.38;;;;;;;10.54;64.02;99774.06;10371159;28;20099;-86
2022/09/18 04:50:07;;;;;;;4.07;1.25;;;;;;;10.54;64.00;99784.53;10372132;28;20128;-86
2022/09/18 04:55:09;;;;;;;4.75;1.40;;;;;;;10.56;63.82;99777.44;10376002;28;20049;-85
2022/09/18 05:00:11;;;;;;;5.22;1.67;;;;;;;10.53;64.25;99775.00;10384160;28;20052;-86
2022/09/18 05:05:12;;;;;;;5.47;1.52;;;;;;;10.47;64.15;99771.00;10380061;28;20054;-86
2022/09/18 05:10:14;;;;;;;6.72;1.40;;;;;;;10.53;63.97;99788.06;10380914;28;20049;-85
2022/09/18 05:15:17;;;;;;;3.90;1.33;;;;;;;10.51;64.01;99789.94;10380388;28;20057;-86
2022/09/18 05:20:19;;;;;;;5.50;1.40;;;;;;;10.44;64.43;99784.25;10377854;28;20061;-86
2022/09/18 05:25:23;;;;;;;5.18;1.23;;;;;;;10.49;64.15;99787.44;10379836;28;20714;-86
2022/09/18 05:30:26;;;;;;;6.50;1.65;;;;;;;10.52;64.09;99789.84;10380898;28;20084;-86
2022/09/18 05:35:30;;;;;;;5.63;1.50;;;;;;;10.60;64.21;99792.00;10380194;28;20542;-86
2022/09/18 05:40:34;;;;;;;3.17;1.10;;;;;;;10.64;64.18;99790.88;10412114;28;20046;-86
2022/09/18 05:45:36;;;;;;;6.15;1.30;;;;;;;10.72;63.70;99783.38;10380092;28;20478;-86
2022/09/18 05:50:38;;;;;;;5.53;1.30;;;;;;;10.73;63.88;99787.66;10382070;28;20049;-86
2022/09/18 05:55:41;;;;;;;5.78;1.50;;;;;;;10.81;63.68;99800.25;10375229;28;20057;-79
2022/09/18 06:00:44;;;;;;;3.90;1.30;;;;;;;10.90;63.34;99797.94;10370273;28;20507;-79
2022/09/18 06:05:53;;;;;;;2.55;1.20;;;;;;;11.06;62.91;99795.19;10373577;28;20049;-79
2022/09/18 06:10:59;;;;;;;3.17;1.27;;;;;;;11.19;62.88;99796.09;10403012;28;20395;-78
2022/09/18 06:16:01;;;;;;;4.68;1.13;;;;;;;11.37;62.82;99794.91;10372110;28;20054;-79
2022/09/18 06:21:03;;;;;;;5.03;1.15;;;;;;;11.13;64.07;99804.34;10375404;28;20053;-79
2022/09/18 06:26:06;;;;;;;3.30;1.30;;;;;;;11.08;64.61;99807.25;10372622;28;20911;-78
2022/09/18 06:31:13;;;;;;;4.35;1.17;;;;;;;11.13;64.93;99813.03;10387893;28;20068;-79
2022/09/18 06:36:15;;;;;;;6.07;1.30;;;;;;;11.18;65.09;99803.13;10373293;28;20144;-79
2022/09/18 06:41:17;;;;;;;4.38;1.38;;;;;;;11.31;65.07;99811.03;10372514;28;20400;-79
2022/09/18 06:46:18;;;;;;;5.38;1.20;;;;;;;11.42;65.10;99808.53;10377803;28;20053;-79
2022/09/18 06:51:20;;;;;;;5.10;1.45;;;;;;;11.16;66.00;99806.75;10380338;28;20120;-79
2022/09/18 06:56:21;;;;;;;4.38;1.23;;;;;;;11.22;65.75;99808.97;10378759;28;20053;-79
2022/09/18 07:01:23;;;;;;;4.03;1.20;;;;;;;11.25;66.02;99811.41;10377802;28;20951;-79
2022/09/18 07:06:25;;;;;;;1.58;1.00;;;;;;;11.35;65.67;99809.03;10377165;28;20053;-79
2022/09/18 07:11:27;;;;;;;5.70;1.20;;;;;;;11.40;66.02;99820.06;10374909;28;20053;-78
2022/09/18 07:16:28;;;;;;;3.03;1.00;;;;;;;11.50;65.65;99818.53;10374267;28;20054;-79
2022/09/18 07:21:30;;;;;;;1.45;0.90;;;;;;;11.65;65.63;99813.13;10369964;28;21025;-79
2022/09/18 07:26:32;;;;;;;4.53;1.10;;;;;;;11.77;65.11;99806.22;10374506;28;20060;-79
2022/09/18 07:31:34;;;;;;;2.72;1.15;;;;;;;12.12;64.54;99807.31;10374547;28;20053;-78
2022/09/18 07:36:36;;;;;;;5.00;1.10;;;;;;;12.22;64.31;99810.97;10373347;28;20054;-79
2022/09/18 07:41:38;;;;;;;3.70;1.10;;;;;;;12.11;64.41;99821.34;10375308;28;20522;-78
2022/09/18 07:46:40;;;;;;;3.83;0.90;;;;;;;12.29;64.03;99814.06;10418185;28;20061;-79
2022/09/18 07:51:41;;;;;;;3.88;0.90;;;;;;;12.53;63.77;99807.13;10398987;28;20049;-79
2022/09/18 07:56:43;;;;;;;2.90;1.00;;;;;;;13.03;63.21;99800.94;10374444;28;20633;-79
2022/09/18 08:01:47;;;;;;;2.88;1.00;;;;;;;13.32;62.06;99803.13;10377479;28;20053;-79
2022/09/18 08:06:51;;;;;;;2.58;0.98;;;;;;;13.39;61.87;99803.50;10375656;28;20058;-79
2022/09/18 08:11:53;;;;;;;3.53;1.17;;;;;;;13.12;62.19;99800.25;10375235;28;20415;-79
2022/09/18 08:16:56;;;;;;;3.78;1.00;;;;;;;13.09;62.65;99797.88;10367330;28;20050;-80
2022/09/18 08:21:58;;;;;;;3.05;1.00;;;;;;;12.96;62.87;99801.34;10372086;28;20093;-81
2022/09/18 08:27:02;;;;;;;3.95;1.30;;;;;;;12.88;63.16;99810.75;10366422;28;20104;-81
2022/09/18 08:32:10;;;;;;;2.75;1.15;;;;;;;12.70;63.38;99809.41;10378687;28;20049;-81
2022/09/18 08:37:19;;;;;;;3.47;1.13;;;;;;;12.59;63.98;99811.94;10374925;28;20054;-80
2022/09/18 08:42:43;;;;;;;4.82;1.38;;;;;;;12.41;64.85;99808.81;10394096;28;20061;-81
2022/09/18 08:47:56;;;;;;;3.55;1.25;;;;;;;12.58;64.45;99816.34;10405681;28;20179;-82
2022/09/18 08:53:31;;;;;;;2.97;1.40;;;;;;;12.54;64.52;99804.38;10379658;28;20496;-83
2022/09/18 08:58:51;;;;;;;4.38;1.60;;;;;;;12.63;64.01;99809.00;10372734;28;20057;-82
2022/09/18 09:04:05;;;;;;;3.23;1.40;;;;;;;12.59;64.59;99802.28;10378798;28;20390;-81
2022/09/18 09:09:28;;;;;;;4.65;1.70;;;;;;;12.59;64.62;99791.78;10369298;28;20050;-81
2022/09/18 09:15:01;;;;;;;4.97;1.90;;;;;;;12.64;64.23;99805.41;10374770;28;20118;-81
2022/09/18 09:20:28;;;;;;;3.63;1.60;;;;;;;12.60;64.26;99814.44;10371428;28;20050;-81
2022/09/18 09:25:50;;;;;;;4.55;1.90;;;;;;;12.93;63.67;99814.72;10385145;28;20211;-81
2022/09/18 09:30:58;;;;;;;5.60;2.00;;;;;;;12.98;63.63;99814.38;10393082;28;20833;-81
2022/09/18 09:36:09;;;;;;;8.25;2.80;;;;;;;12.95;62.99;99811.97;10386953;28;20438;-81
2022/09/18 09:41:26;;;;;;;4.78;1.75;;;;;;;13.14;62.75;99803.59;10375199;28;20065;-81
2022/09/18 09:46:59;;;;;;;4.32;1.80;;;;;;;13.10;63.64;99792.50;10383553;28;20049;-81
2022/09/18 09:52:25;;;;;;;7.55;2.63;;;;;;;13.35;62.79;99797.63;10376735;28;20064;-81
2022/09/18 09:57:56;;;;;;;4.05;1.98;;;;;;;13.67;61.79;99792.66;10368543;28;20053;-81
2022/09/18 10:03:00;;;;;;;5.80;1.95;;;;;;;13.75;62.04;99799.03;10368168;28;20056;-81
2022/09/18 10:08:44;;;;;;;3.67;1.90;;;;;;;13.87;61.62;99797.28;10372961;28;20068;-81
2022/09/18 10:14:09;;;;;;;4.93;1.60;;;;;;;14.44;60.45;99765.66;10371382;28;20523;-80
2022/09/18 10:19:19;;;;;;;4.25;1.50;;;;;;;14.74;60.00;99775.59;10369124;28;20069;-81
2022/09/18 10:24:47;;;;;;;9.60;1.50;;;;;;;14.85;58.92;99767.69;10374880;28;20152;-81
2022/09/18 10:29:56;;;;;;;2.55;1.30;;;;;;;14.90;58.78;99774.25;10369415;28;20041;-81
2022/09/18 10:34:58;;;;;;;1.80;1.10;;;;;;;15.08;58.06;99769.31;10371815;28;20073;-82
2022/09/18 10:40:01;;;;;;;4.45;2.08;;;;;;;15.11;58.05;99762.00;10372894;28;20443;-82
2022/09/18 10:45:06;;;;;;;3.50;1.73;;;;;;;15.23;57.24;99752.25;10369744;28;20061;-82
2022/09/18 10:50:18;;;;;;;3.90;1.42;;;;;;;14.79;56.25;99758.50;10370689;28;20400;-82
2022/09/18 10:55:24;;;;;;;5.05;1.30;;;;;;;14.48;57.94;99764.47;10369251;28;20149;-82
2022/09/18 11:00:28;;;;;;;4.60;1.30;;;;;;;14.27;57.62;99766.97;10372940;28;20978;-82
2022/09/18 11:05:48;;;;;;;1.77;1.10;;;;;;;13.73;58.00;99760.69;10365223;28;20072;-82
2022/09/18 11:11:00;;;;;;;4.30;1.43;;;;;;;13.73;57.97;99761.53;10388172;28;20057;-82
2022/09/18 11:16:07;;;;;;;3.90;1.55;;;;;;;14.21;57.13;99753.44;10382172;28;20475;-82
2022/09/18 11:21:09;;;;;;;3.88;1.67;;;;;;;14.27;56.80;99745.91;10401899;28;20089;-82
2022/09/18 11:26:27;;;;;;;4.93;1.58;;;;;;;14.24;56.47;99742.69;10368103;28;20144;-82
2022/09/18 11:32:01;;;;;;;3.83;1.50;;;;;;;14.44;56.05;99736.72;10383417;28;20123;-82
2022/09/18 11:37:33;;;;;;;3.95;1.50;;;;;;;14.17;55.18;99723.06;10364284;28;20068;-82
2022/09/18 11:42:46;;;;;;;5.15;1.38;;;;;;;14.15;56.31;99736.34;10387865;28;20049;-82
2022/09/18 11:54:36;;;;;;;4.90;1.70;;;;;;;14.49;55.02;99740.69;10288332;28;20046;-82
2022/09/18 11:59:50;;;;;;;4.32;1.70;;;;;;;14.80;54.21;99738.28;10297425;28;20058;-83
2022/09/18 12:05:05;;;;;;;3.65;1.63;;;;;;;14.92;54.58;99739.91;10356355;28;20062;-83
2022/09/18 12:10:26;;;;;;;3.42;1.60;;;;;;;14.79;54.56;99740.06;10375771;28;20048;-83
2022/09/18 12:15:39;;;;;;;5.07;1.65;;;;;;;14.85;54.79;99728.19;10362064;28;20499;-83
2022/09/18 12:20:58;;;;;;;3.33;1.60;;;;;;;14.84;54.05;99726.53;10371875;28;20423;-83
2022/09/18 12:26:06;;;;;;;6.03;1.90;;;;;;;14.70;54.60;99732.03;10394962;28;20060;-84
2022/09/18 12:31:24;;;;;;;6.38;1.83;;;;;;;14.55;55.25;99740.19;10377237;28;20057;-83
2022/09/18 12:37:00;;;;;;;3.42;1.52;;;;;;;14.31;55.68;99728.94;10376030;28;20050;-84
2022/09/18 12:42:14;;;;;;;5.70;2.05;;;;;;;14.44;56.00;99720.94;10376832;28;20423;-84
2022/09/18 12:47:52;;;;;;;6.07;2.05;;;;;;;14.27;55.71;99722.25;10410175;28;20754;-83
2022/09/18 12:53:26;;;;;;;6.88;1.90;;;;;;;14.35;54.60;99717.22;10377219;28;20797;-83
2022/09/18 12:58:40;;;;;;;5.18;1.90;;;;;;;14.54;54.96;99714.84;10377471;28;20582;-83
2022/09/18 13:03:43;;;;;;;4.93;1.65;;;;;;;14.42;54.24;99718.44;10376720;28;20065;-84
2022/09/18 13:08:55;;;;;;;4.00;1.90;;;;;;;14.55;54.43;99724.41;10393298;28;20060;-83
2022/09/18 13:14:25;;;;;;;5.70;1.80;;;;;;;14.67;52.88;99713.88;10378287;28;20507;-83
2022/09/18 13:19:39;;;;;;;3.17;1.60;;;;;;;14.83;52.52;99724.84;10380413;28;20049;-83
2022/09/18 13:24:44;;;;;;;5.07;1.90;;;;;;;14.35;53.94;99726.94;10378574;28;20054;-83
2022/09/18 13:29:52;;;;;;;6.47;1.80;;;;;;;14.18;56.18;99730.03;10411234;28;20072;-83
2022/09/18 13:34:58;;;;;;;6.20;1.80;;;;;;;14.10;55.92;99714.00;10394050;28;20064;-83
2022/09/18 13:40:06;;;;;;;5.00;2.20;;;;;;;14.16;54.82;99713.53;10376687;28;20060;-83
2022/09/18 13:45:11;;;;;;;7.13;2.00;;;;;;;14.33;55.03;99713.88;10377225;28;20085;-83
2022/09/18 13:50:17;;;;;;;5.45;1.90;;;;;;;14.52;54.81;99711.50;10376811;28;20089;-83
2022/09/18 13:55:19;;;;;;;5.13;1.90;;;;;;;14.50;54.58;99702.91;10378286;28;21050;-84
2022/09/18 14:00:20;;;;;;;9.43;2.00;;;;;;;14.21;54.82;99706.94;10377628;28;20050;-83
2022/09/18 14:05:38;;;;;;;4.30;2.00;;;;;;;13.78;56.03;99713.84;10377320;28;20073;-83
2022/09/18 14:11:05;;;;;;;3.45;1.70;;;;;;;13.74;57.02;99707.13;10411819;28;20048;-83
2022/09/18 14:16:39;;;;;;;4.80;1.90;;;;;;;13.50;56.98;99704.59;10379319;28;20061;-83
2022/09/18 14:21:43;;;;;;;6.68;2.13;;;;;;;13.58;56.26;99698.75;10376243;28;20077;-83
2022/09/18 14:26:46;;;;;;;6.43;2.30;;;;;;;13.65;56.61;99695.56;10376290;28;20056;-83
2022/09/18 14:31:53;;;;;;;5.45;2.33;;;;;;;13.61;56.86;99686.22;10374536;28;20050;-83
2022/09/18 14:36:58;;;;;;;5.28;2.50;;;;;;;13.54;56.36;99682.38;10371478;28;20419;-84
2022/09/18 14:42:04;;;;;;;5.93;2.10;;;;;;;13.60;56.65;99675.81;10376699;28;20056;-83
2022/09/18 14:47:20;;;;;;;3.40;2.03;;;;;;;13.70;56.30;99666.28;10389550;28;20068;-83
2022/09/18 14:52:31;;;;;;;5.47;1.90;;;;;;;13.60;56.46;99660.91;10374944;28;20697;-83
2022/09/18 14:57:42;;;;;;;5.32;1.90;;;;;;;13.24;56.34;99653.16;10375897;28;20057;-83
2022/09/18 15:02:49;;;;;;;5.30;1.98;;;;;;;13.17;56.56;99651.91;10374612;28;20064;-83
2022/09/18 15:08:15;;;;;;;5.05;2.40;;;;;;;13.09;56.73;99659.53;10372806;28;20045;-83
2022/09/18 15:13:20;;;;;;;7.93;3.13;;;;;;;13.08;56.37;99659.66;10390900;28;20058;-83
2022/09/18 15:18:26;;;;;;;11.82;6.50;;;;;;;12.98;57.33;99662.13;10375571;28;20057;-83
2022/09/18 15:23:31;;;;;;;7.22;2.60;;;;;;;12.91;57.69;99663.50;10388599;28;20514;-83
2022/09/18 15:28:35;;;;;;;6.35;1.75;;;;;;;12.82;57.98;99657.16;10389519;28;20064;-83
2022/09/18 15:33:56;;;;;;;5.63;1.90;;;;;;;12.72;58.51;99666.63;10374586;28;20427;-82
2022/09/18 15:38:59;;;;;;;5.45;2.33;;;;;;;12.61;59.28;99663.13;10371453;28;20060;-83
2022/09/18 15:44:02;;;;;;;7.53;1.95;;;;;;;12.48;60.11;99668.41;10356314;28;20071;-82
2022/09/18 15:49:33;;;;;;;3.60;1.83;;;;;;;12.19;61.06;99661.78;10366186;28;20710;-83
2022/09/18 15:54:34;;;;;;;4.10;1.70;;;;;;;12.17;61.46;99658.41;10386928;28;20061;-83
2022/09/18 15:59:39;;;;;;;5.47;1.98;;;;;;;12.13;61.93;99657.78;10372416;28;20049;-83
2022/09/18 16:04:41;;;;;;;7.00;2.20;;;;;;;12.13;61.76;99663.03;10372679;28;20144;-83
2022/09/18 16:09:45;;;;;;;4.40;2.00;;;;;;;12.09;61.80;99682.53;10373161;28;20511;-83
2022/09/18 16:15:14;;;;;;;6.22;1.98;;;;;;;11.85;62.62;99675.53;10371407;28;20054;-83
2022/09/18 16:20:32;;;;;;;4.20;1.90;;;;;;;11.82;63.29;99673.13;10373632;28;20057;-83
2022/09/18 16:25:36;;;;;;;5.35;1.90;;;;;;;11.91;62.94;99667.25;10371503;28;20054;-83
2022/09/18 16:30:38;;;;;;;9.50;4.60;;;;;;;11.93;63.05;99670.59;10375499;28;20060;-83
2022/09/18 16:35:40;;;;;;;4.32;1.67;;;;;;;11.93;63.12;99670.59;10374850;28;20518;-82
2022/09/18 16:40:42;;;;;;;3.88;1.75;;;;;;;11.89;63.41;99661.25;10368649;28;20045;-82
2022/09/18 16:45:46;;;;;;;2.78;1.50;;;;;;;11.77;63.70;99665.59;10367922;28;20058;-82
2022/09/18 16:50:48;;;;;;;3.17;1.60;;;;;;;11.69;64.14;99662.66;10373558;28;20129;-83
2022/09/18 16:55:54;;;;;;;2.63;1.50;;;;;;;11.74;64.05;99649.25;10376456;28;20056;-82
2022/09/18 17:00:57;;;;;;;3.00;1.45;;;;;;;11.65;64.39;99640.22;10378746;28;20046;-82
2022/09/18 17:06:00;;;;;;;4.18;1.60;;;;;;;11.49;64.22;99650.06;10379739;28;20058;-83
2022/09/18 17:11:03;;;;;;;5.00;2.20;;;;;;;11.55;64.71;99638.34;10377316;28;20654;-82
2022/09/18 17:16:05;;;;;;;24.98;2.38;;;;;;;11.58;64.88;99638.16;10374656;28;20049;-82
2022/09/18 17:21:07;;;;;;;4.18;1.70;;;;;;;11.65;64.61;99636.75;10372003;28;20526;-83
2022/09/18 17:26:13;;;;;;;4.18;1.80;;;;;;;11.58;64.81;99643.38;10368446;28;20056;-83
2022/09/18 17:31:19;;;;;;;3.42;1.70;;;;;;;11.51;65.12;99642.09;10393517;28;20538;-86
2022/09/18 17:36:29;;;;;;;5.90;1.80;;;;;;;11.46;65.95;99649.47;10389743;28;20116;-85
2022/09/18 17:41:37;;;;;;;6.30;1.80;;;;;;;11.49;65.57;99649.22;10376002;28;20046;-85
2022/09/18 17:46:41;;;;;;;4.85;1.63;;;;;;;11.61;65.21;99638.75;10376253;28;20057;-84
2022/09/18 17:51:52;;;;;;;2.45;1.52;;;;;;;11.55;65.20;99654.91;10375405;28;20065;-84
2022/09/18 17:57:11;;;;;;;;;;;;;;;11.23;66.25;99666.69;10374873;28;20064;-85
2022/09/18 18:02:14;;;;;;;2.95;1.33;;;;;;;10.36;63.95;99687.16;10372208;28;19925;-82
2022/09/18 18:07:53;;;;;;;8.70;1.30;;;;;;;9.61;67.59;99697.88;10374956;28;20050;-82
2022/09/18 18:12:56;;;;;;;2.47;1.00;;;;;;;9.43;67.50;99700.72;10369046;28;20041;-82
2022/09/18 18:17:58;;;;;;;3.75;1.20;;;;;;;9.31;67.79;99706.66;10374283;28;20057;-82
2022/09/18 18:23:01;;;;;;;4.13;1.40;;;;;;;9.44;68.65;99711.06;10376275;28;20053;-83
2022/09/18 18:28:08;;;;;;;4.78;1.30;;;;;;;9.54;68.04;99717.41;10373116;28;20058;-83
2022/09/18 18:33:09;;;;;;;3.15;1.30;;;;;;;9.56;67.35;99719.97;10375154;28;20595;-83
2022/09/18 18:38:11;;;;;;;6.47;1.80;;;;;;;9.64;68.13;99725.56;10373065;28;20057;-82
2022/09/18 18:43:14;;;;;;;3.33;1.40;;;;;;;9.74;67.79;99738.94;10374086;28;20049;-83
2022/09/18 18:48:21;;;;;;;4.43;1.40;;;;;;;9.83;67.78;99751.47;10374564;28;20053;-82
2022/09/18 18:53:23;;;;;;;4.63;2.75;;;;;;;9.99;67.39;99754.84;10387913;28;20057;-82
2022/09/18 18:58:25;;;;;;;6.35;2.70;;;;;;;10.08;67.38;99756.88;10372832;28;20053;-80
2022/09/18 19:03:27;;;;;;;5.75;2.42;;;;;;;10.13;67.59;99773.16;10374840;28;20058;-81
2022/09/18 19:08:28;;;;;;;5.22;1.70;;;;;;;10.09;67.08;99774.25;10370568;28;20140;-81
2022/09/18 19:13:38;;;;;;;4.03;1.60;;;;;;;10.07;66.91;99794.41;10371869;28;20064;-80
2022/09/18 19:18:40;;;;;;;5.00;1.70;;;;;;;10.11;66.67;99790.69;10376929;28;20064;-80
2022/09/18 19:23:42;;;;;;;5.75;2.08;;;;;;;10.19;66.82;99789.31;10372322;28;20061;-80
2022/09/18 19:28:52;;;;;;;4.93;1.67;;;;;;;10.19;66.90;99807.59;10371914;28;20054;-80
2022/09/18 19:33:55;;;;;;;5.73;2.53;;;;;;;10.16;66.70;99807.75;10372508;28;20065;-80
2022/09/18 19:38:59;;;;;;;4.65;1.80;;;;;;;10.17;66.88;99808.63;10367108;28;20485;-80
2022/09/18 19:44:03;;;;;;;3.53;1.70;;;;;;;10.24;66.46;99825.59;10367379;28;20053;-80
2022/09/18 19:49:17;;;;;;;3.35;1.67;;;;;;;10.22;67.01;99827.47;10370463;28;20060;-80
2022/09/18 19:54:19;;;;;;;7.15;1.92;;;;;;;10.24;66.89;99822.97;10401807;28;20073;-80
2022/09/18 19:59:20;;;;;;;8.60;3.20;;;;;;;10.16;67.25;99827.81;10368578;28;20049;-80
2022/09/18 20:04:23;;;;;;;4.68;2.00;;;;;;;10.12;67.32;99816.72;10369587;28;20061;-80
2022/09/18 20:09:27;;;;;;;8.82;4.38;;;;;;;10.05;67.46;99791.91;10366689;28;20485;-80
2022/09/18 20:14:29;;;;;;;4.68;2.03;;;;;;;10.06;67.55;99767.44;10363156;28;20049;-79
2022/09/18 20:19:31;;;;;;;4.43;1.50;;;;;;;9.95;67.00;99787.31;10366886;28;20068;-80
2022/09/18 20:24:33;;;;;;;2.40;1.30;;;;;;;9.81;67.04;99789.91;10367858;28;20075;-80
2022/09/18 20:29:34;;;;;;;4.22;1.63;;;;;;;9.72;67.09;99777.38;10378144;28;20415;-80
2022/09/18 20:34:36;;;;;;;3.53;1.38;;;;;;;9.61;67.17;99764.91;10380495;28;20053;-80
2022/09/18 20:39:38;;;;;;;8.50;3.70;;;;;;;9.42;67.12;99767.72;10379423;28;20081;-80
2022/09/18 20:44:40;;;;;;;5.00;1.88;;;;;;;9.17;67.77;99777.06;10378073;28;20053;-81
2022/09/18 20:49:44;;;;;;;7.13;1.63;;;;;;;8.80;68.40;99780.88;10375755;28;20042;-81
2022/09/18 20:54:47;;;;;;;5.45;1.50;;;;;;;8.69;68.70;99773.63;10379267;28;20423;-80
2022/09/18 20:59:48;;;;;;;2.05;1.02;;;;;;;8.56;68.88;99798.69;10380518;28;20522;-80
2022/09/18 21:04:51;;;;;;;2.03;1.20;;;;;;;8.42;68.81;99814.22;10379138;28;20061;-80
2022/09/18 21:09:52;;;;;;;2.13;1.10;;;;;;;8.29;69.17;99822.75;10375573;28;20503;-81
2022/09/18 21:15:01;;;;;;;1.80;1.10;;;;;;;8.28;69.26;99832.31;10375887;28;20085;-80
2022/09/18 21:20:03;;;;;;;3.20;1.40;;;;;;;8.26;69.37;99841.16;10376202;28;20049;-80
2022/09/18 21:25:06;;;;;;;3.80;1.50;;;;;;;8.17;69.55;99826.84;10375102;28;20057;-80
2022/09/18 21:30:08;;;;;;;2.60;1.20;;;;;;;8.09;69.79;99828.09;10373879;28;20061;-80
2022/09/18 21:35:09;;;;;;;5.97;1.58;;;;;;;8.03;69.84;99829.28;10373509;28;20050;-80
2022/09/18 21:40:11;;;;;;;3.17;1.30;;;;;;;7.94;69.99;99835.78;10376305;28;20046;-86
2022/09/18 21:45:19;;;;;;;3.35;1.20;;;;;;;7.91;69.96;99835.97;10376427;28;20562;-86
2022/09/18 21:50:21;;;;;;;3.78;1.10;;;;;;;7.86;70.17;99844.91;10375730;28;20049;-86
2022/09/18 21:55:23;;;;;;;3.13;1.38;;;;;;;7.86;70.26;99837.09;10379308;28;20064;-88
2022/09/18 22:00:25;;;;;;;3.67;1.30;;;;;;;7.89;70.18;99843.00;10373334;28;20050;-86
2022/09/18 22:05:28;;;;;;;5.45;1.30;;;;;;;7.96;70.24;99839.16;10381242;28;20058;-86
2022/09/18 22:10:29;;;;;;;2.05;1.20;;;;;;;7.96;69.95;99835.69;10379980;28;20057;-85
2022/09/18 22:15:31;;;;;;;3.38;1.42;;;;;;;7.82;70.49;99843.38;10378755;28;20055;-86
2022/09/18 22:20:36;;;;;;;5.88;1.70;;;;;;;7.82;70.56;99846.81;10375544;28;20049;-85
2022/09/18 22:25:39;;;;;;;13.18;5.85;;;;;;;7.85;70.33;99844.03;10374486;28;20057;-86
2022/09/18 22:30:40;;;;;;;4.95;1.98;;;;;;;7.83;70.51;99843.28;10374760;28;20053;-85
2022/09/18 22:35:42;;;;;;;3.90;1.70;;;;;;;7.89;70.25;99850.81;10379537;28;20068;-85
2022/09/18 22:40:44;;;;;;;2.67;1.38;;;;;;;7.94;70.42;99855.75;10374093;28;20053;-86
2022/09/18 22:45:45;;;;;;;4.55;1.50;;;;;;;7.95;70.46;99850.50;10373451;28;20504;-85
2022/09/18 22:50:47;;;;;;;2.90;1.45;;;;;;;8.00;70.29;99858.91;10377506;28;20074;-85
2022/09/18 22:55:48;;;;;;;4.65;1.55;;;;;;;8.08;70.27;99860.31;10379075;28;20060;-86
2022/09/18 23:00:50;;;;;;;6.00;1.40;;;;;;;8.22;69.93;99856.09;10375980;28;20068;-85
2022/09/18 23:05:52;;;;;;;3.30;1.40;;;;;;;8.36;69.52;99861.44;10378709;28;20103;-85
2022/09/18 23:10:55;;;;;;;3.33;1.60;;;;;;;8.41;69.35;99858.59;10373372;28;20046;-86
2022/09/18 23:16:05;;;;;;;2.55;1.40;;;;;;;8.54;69.21;99860.50;10376696;28;20407;-85
2022/09/18 23:21:10;;;;;;;5.37;1.50;;;;;;;8.55;69.02;99858.69;10408181;28;20112;-85
2022/09/18 23:26:18;;;;;;;5.22;1.60;;;;;;;8.57;69.00;99859.47;10376627;28;20053;-85
2022/09/18 23:31:28;;;;;;;5.15;1.50;;;;;;;8.59;69.06;99860.22;10373468;28;20045;-84
2022/09/18 23:36:34;;;;;;;6.90;2.08;;;;;;;8.66;68.92;99867.66;10373544;28;20474;-86
2022/09/18 23:41:37;;;;;;;6.28;2.00;;;;;;;8.65;68.79;99868.56;10374832;28;20069;-86
2022/09/18 23:46:38;;;;;;;9.02;2.05;;;;;;;8.76;68.53;99876.69;10376491;28;20049;-85
2022/09/18 23:51:43;;;;;;;3.75;1.73;;;;;;;8.90;68.18;99872.47;10374391;28;20045;-86
2022/09/18 23:56:46;;;;;;;6.25;1.70;;;;;;;8.96;68.13;99880.81;10376418;28;20073;-86
